ADDS METAR Data INFO
IDs: Format: Raw Decoded Include TAF

Data at: 1318 UTC 19 Jul 2018

K65S 191315Z AUTO 11003KT 10SM FEW110 18/08 A3000 RMK AO2
K65S 191255Z AUTO 11005KT 10SM FEW110 18/07 A2999 RMK AO2
K65S 191235Z AUTO 18003KT 10SM CLR 17/08 A2999 RMK AO2
K65S 191215Z AUTO 10005KT 10SM CLR 17/07 A2998 RMK AO2
K65S 191155Z AUTO 00000KT 10SM CLR 17/07 A2998 RMK AO2
K65S 191135Z AUTO 00000KT 10SM FEW110 17/08 A2997 RMK AO2
K65S 191115Z AUTO 10005KT 10SM SCT110 18/07 A2997 RMK AO2
K65S 191055Z AUTO 10004KT 10SM FEW120 18/07 A2997 RMK AO2
K65S 191035Z AUTO 00000KT 10SM CLR 18/07 A2997 RMK AO2
K65S 191015Z AUTO 00000KT 10SM CLR 19/07 A2997 RMK AO2
K65S 190955Z AUTO 00000KT 10SM CLR 20/07 A2997 RMK AO2
K65S 190935Z AUTO 00000KT 10SM FEW120 20/07 A2997 RMK AO2
K65S 190915Z AUTO 12004KT 10SM CLR 21/07 A2996 RMK AO2
K65S 190855Z AUTO 09004KT 10SM CLR 21/07 A2997 RMK AO2 LTG DSNT NE AND NW
K65S 190835Z AUTO 00000KT 10SM CLR 22/07 A2997 RMK AO2
K65S 190815Z AUTO 00000KT 10SM CLR 22/07 A2996 RMK AO2
K65S 190755Z AUTO 00000KT 10SM CLR 22/07 A2996 RMK AO2
K65S 190735Z AUTO 00000KT 10SM CLR 22/07 A2996 RMK AO2
K65S 190715Z AUTO 00000KT 10SM CLR 22/07 A2996 RMK AO2
K65S 190655Z AUTO 00000KT 10SM CLR 22/07 A2995 RMK AO2
K65S 190635Z AUTO 00000KT 10SM CLR 22/08 A2995 RMK AO2
K65S 190615Z AUTO 00000KT 10SM CLR 23/08 A2995 RMK AO2
K65S 190555Z AUTO 21006KT 10SM CLR 24/08 A2995 RMK AO2
K65S 190535Z AUTO 22003KT 10SM CLR 24/08 A2995 RMK AO2
K65S 190515Z AUTO 22005KT 10SM CLR 25/08 A2995 RMK AO2 LTG DSNT N
K65S 190455Z AUTO 23006KT 10SM CLR 25/08 A2995 RMK AO2
K65S 190435Z AUTO 23004KT 10SM CLR 25/08 A2995 RMK AO2
K65S 190415Z AUTO 00000KT 10SM CLR 25/08 A2995 RMK AO2
K65S 190355Z AUTO 23004KT 10SM CLR 25/08 A2994 RMK AO2 LTG DSNT NW
K65S 190335Z AUTO 00000KT 10SM CLR 26/08 A2993 RMK AO2
K65S 190315Z AUTO 00000KT 10SM CLR 27/08 A2993 RMK AO2
K65S 190255Z AUTO 22004KT 10SM CLR 27/08 A2992 RMK AO2
K65S 190235Z AUTO 00000KT 10SM CLR 28/07 A2992 RMK AO2
K65S 190215Z AUTO 20004KT 10SM CLR 28/08 A2992 RMK AO2
K65S 190155Z AUTO 21006KT 10SM CLR 29/08 A2992 RMK AO2
K65S 190135Z AUTO 20006KT 10SM CLR 29/08 A2993 RMK AO2
K65S 190115Z AUTO 20007KT 10SM CLR 29/08 A2993 RMK AO2
K65S 190055Z AUTO 20008G14KT 170V230 10SM CLR 29/08 A2994 RMK AO2
K65S 190035Z AUTO 21004G14KT 10SM CLR 29/08 A2994 RMK AO2
K65S 190015Z AUTO 21006KT 10SM CLR 30/08 A2994 RMK AO2
K65S 182355Z AUTO 20009G15KT 10SM CLR 30/08 A2994 RMK AO2
K65S 182335Z AUTO 20011G15KT 10SM CLR 30/08 A2994 RMK AO2
K65S 182315Z AUTO 21007G18KT 170V250 10SM CLR 30/08 A2994 RMK AO2
K65S 182255Z AUTO 20007G14KT 170V230 10SM CLR 30/08 A2995 RMK AO2
K65S 182235Z AUTO 20010G15KT 10SM CLR 30/08 A2995 RMK AO2
K65S 182215Z AUTO 19009G15KT 160V220 10SM CLR 30/08 A2995 RMK AO2
K65S 182155Z AUTO 20006G19KT 170V240 10SM CLR 29/09 A2996 RMK AO2
K65S 182135Z AUTO 19008KT 10SM CLR 29/09 A2996 RMK AO2
K65S 182115Z AUTO 20009KT 160V250 10SM CLR 29/09 A2996 RMK AO2
K65S 182055Z AUTO 21008G18KT 160V230 10SM CLR 29/08 A2997 RMK AO2
K65S 182035Z AUTO 21006G16KT 10SM CLR 29/08 A2997 RMK AO2
K65S 182015Z AUTO 20010G16KT 160V230 10SM CLR 28/08 A2997 RMK AO2
K65S 181955Z AUTO 19012G19KT 150V230 10SM CLR 28/08 A2997 RMK AO2
K65S 181935Z AUTO 19008G16KT 160V260 10SM CLR 28/08 A2998 RMK AO2
K65S 181915Z AUTO 20010G15KT 170V230 10SM CLR 28/08 A2998 RMK AO2
K65S 181855Z AUTO 18007G14KT 10SM CLR 28/08 A2998 RMK AO2
K65S 181835Z AUTO 22008KT 170V250 10SM CLR 27/08 A2998 RMK AO2
K65S 181815Z AUTO 20009G17KT 150V250 10SM CLR 27/08 A2998 RMK AO2
K65S 181755Z AUTO 20010G15KT 160V230 10SM CLR 27/08 A2999 RMK AO2
K65S 181735Z AUTO 19008G18KT 160V230 10SM CLR 26/08 A2999 RMK AO2
K65S 181715Z AUTO 19007KT 10SM CLR 25/09 A2999 RMK AO2
K65S 181655Z AUTO 18004KT 10SM CLR 24/09 A2999 RMK AO2
K65S 181635Z AUTO 00000KT 10SM CLR 24/09 A2999 RMK AO2
K65S 181615Z AUTO 11004KT 10SM CLR 23/09 A2999 RMK AO2
K65S 181555Z AUTO 00000KT 10SM CLR 22/10 A2999 RMK AO2
K65S 181535Z AUTO 20003KT 10SM CLR 22/09 A2999 RMK AO2
K65S 181515Z AUTO 20003KT 10SM CLR 20/08 A2999 RMK AO2
K65S 181455Z AUTO 18003KT 10SM CLR 20/08 A2999 RMK AO2
K65S 181435Z AUTO 00000KT 10SM CLR 19/08 A2999 RMK AO2
K65S 181415Z AUTO 00000KT 10SM CLR 19/07 A2998 RMK AO2
K65S 181355Z AUTO 00000KT 10SM CLR 18/08 A2997 RMK AO2
K65S 181335Z AUTO 00000KT 10SM CLR 18/08 A2997 RMK AO2
K65S 181315Z AUTO 00000KT 10SM CLR 18/07 A2996 RMK AO2
K65S 181255Z AUTO 09006KT 10SM CLR 17/06 A2995 RMK AO2
K65S 181235Z AUTO 16005KT 10SM CLR 16/07 A2995 RMK AO2
K65S 181215Z AUTO 10006KT 10SM CLR 18/06 A2994 RMK AO2
K65S 181155Z AUTO 17003KT 10SM CLR 17/07 A2994 RMK AO2
K65S 181135Z AUTO 15005KT 10SM CLR 18/06 A2993 RMK AO2
K65S 181115Z AUTO 00000KT 10SM CLR 17/07 A2993 RMK AO2
K65S 181055Z AUTO 00000KT 10SM CLR 18/06 A2992 RMK AO2
K65S 181035Z AUTO 00000KT 10SM CLR 19/05 A2992 RMK AO2
K65S 181015Z AUTO 11004KT 10SM CLR 20/05 A2992 RMK AO2
K65S 180955Z AUTO 11005KT 10SM CLR 20/06 A2992 RMK AO2
K65S 180935Z AUTO 12004KT 10SM CLR 21/05 A2992 RMK AO2
K65S 180915Z AUTO 13003KT 10SM CLR 22/05 A2991 RMK AO2
K65S 180855Z AUTO 11006KT 10SM CLR 22/05 A2991 RMK AO2
K65S 180835Z AUTO 12004KT 10SM CLR 23/05 A2991 RMK AO2
K65S 180815Z AUTO 14003KT 10SM CLR 23/06 A2991 RMK AO2
K65S 180755Z AUTO 12004KT 10SM CLR 23/05 A2991 RMK AO2
K65S 180735Z AUTO 15004KT 10SM CLR 23/05 A2991 RMK AO2
K65S 180715Z AUTO 17003KT 10SM CLR 23/07 A2991 RMK AO2
K65S 180655Z AUTO 16004KT 10SM CLR 22/07 A2991 RMK AO2
K65S 180635Z AUTO 17003KT 10SM CLR 23/07 A2991 RMK AO2
K65S 180615Z AUTO 00000KT 10SM CLR 24/06 A2991 RMK AO2
K65S 180555Z AUTO 00000KT 10SM CLR 23/07 A2991 RMK AO2
K65S 180535Z AUTO 00000KT 10SM CLR 24/07 A2991 RMK AO2
K65S 180515Z AUTO 00000KT 10SM CLR 25/07 A2991 RMK AO2
K65S 180455Z AUTO 00000KT 10SM CLR 26/07 A2992 RMK AO2
K65S 180435Z AUTO 22004KT 10SM CLR 28/07 A2991 RMK AO2
K65S 180415Z AUTO 22005KT 10SM CLR 28/07 A2991 RMK AO2
K65S 180355Z AUTO 00000KT 10SM CLR 28/07 A2991 RMK AO2
K65S 180335Z AUTO 22004KT 10SM CLR 28/07 A2991 RMK AO2
K65S 180315Z AUTO 22005KT 10SM CLR 29/07 A2990 RMK AO2
K65S 180255Z AUTO 23003KT 10SM CLR 29/07 A2990 RMK AO2
K65S 180235Z AUTO 21005KT 10SM CLR 30/07 A2990 RMK AO2
K65S 180215Z AUTO 22003KT 10SM CLR 32/06 A2990 RMK AO2
K65S 180155Z AUTO 21005KT 10SM CLR 32/05 A2990 RMK AO2
K65S 180135Z AUTO 22004KT 10SM CLR 32/05 A2990 RMK AO2